Time;durP1;ratioP1;P1;durP2;ratioP2;P2;SDS_P1;SDS_P2;PMS_P1;PMS_P2;Temp;Humidity;BMP_temperature;BMP_pressure;BME280_temperature;BME280_humidity;BME280_pressure;Samples;Min_cycle;Max_cycle;Signal;HPM_P1;HPM_P2
2022/09/06 00:02:03;;;;;;;5.73;4.67;;;23.60;46.10;;;26.22;36.83;101779.72;5053269;28;20667;-62
2022/09/06 00:04:31;;;;;;;4.23;3.90;;;23.60;46.20;;;26.20;36.25;101784.56;5053420;28;20189;-61
2022/09/06 00:06:58;;;;;;;4.20;3.90;;;23.60;46.20;;;26.20;36.25;101785.38;5053560;28;20261;-61
2022/09/06 00:09:25;;;;;;;4.13;3.77;;;23.60;46.20;;;26.21;36.87;101786.19;5073351;28;20189;-58
2022/09/06 00:11:53;;;;;;;4.50;4.10;;;23.60;46.30;;;26.20;36.84;101779.97;5073327;28;20228;-61
2022/09/06 00:14:20;;;;;;;5.33;4.07;;;23.60;46.30;;;26.21;36.80;101786.19;5073343;28;20189;-58
2022/09/06 00:16:47;;;;;;;4.63;4.00;;;23.60;46.40;;;26.20;36.32;101789.97;5073363;28;20232;-60
2022/09/06 00:19:16;;;;;;;4.27;3.93;;;23.60;46.40;;;26.19;36.39;101791.03;5060154;28;20205;-61
2022/09/06 00:21:43;;;;;;;4.43;3.67;;;23.50;47.10;;;26.15;36.38;101787.19;5052954;28;20249;-61
2022/09/06 00:24:11;;;;;;;4.00;3.70;;;23.50;46.50;;;26.12;36.37;101782.31;5053086;28;20202;-60
2022/09/06 00:26:38;;;;;;;4.47;4.17;;;23.50;46.60;;;26.11;36.60;101772.56;5053221;28;20217;-60
2022/09/06 00:29:05;;;;;;;4.40;4.10;;;23.50;46.80;;;26.08;36.80;101771.16;5053127;28;20190;-61
2022/09/06 00:31:34;;;;;;;4.63;4.23;;;23.50;46.90;;;26.07;36.56;101774.13;5052750;28;20201;-60
2022/09/06 00:34:01;;;;;;;4.43;4.10;;;23.40;46.80;;;26.05;36.58;101781.66;5064043;28;20247;-60
2022/09/06 00:36:30;;;;;;;4.67;4.27;;;23.40;46.90;;;26.00;36.70;101785.13;5073043;28;20217;-61
2022/09/06 00:38:57;;;;;;;4.93;3.77;;;23.40;47.00;;;25.96;37.26;101777.78;5073178;28;20680;-60
2022/09/06 00:41:25;;;;;;;3.90;3.60;;;23.40;47.10;;;25.92;36.89;101777.44;5072792;28;20193;-61
2022/09/06 00:43:53;;;;;;;4.10;3.80;;;23.30;47.10;;;25.89;37.13;101774.41;5072893;28;20196;-60
2022/09/06 00:46:24;;;;;;;5.20;4.07;;;23.30;47.10;;;25.85;37.13;101776.00;5074948;28;20191;-60
2022/09/06 00:49:02;;;;;;;4.27;3.97;;;23.30;47.30;;;25.78;37.02;101769.97;5077324;28;20189;-59
2022/09/06 00:51:33;;;;;;;3.97;3.57;;;23.20;47.40;;;25.76;37.46;101772.09;5076849;28;20223;-60
2022/09/06 00:54:02;;;;;;;4.20;3.90;;;23.20;47.50;;;25.69;37.46;101772.28;5057654;28;20607;-59
2022/09/06 00:56:33;;;;;;;5.20;3.77;;;23.10;47.80;;;25.65;37.28;101771.13;5056963;28;20209;-60
2022/09/06 00:59:01;;;;;;;3.60;3.30;;;23.10;47.80;;;25.59;37.75;101771.31;5056849;28;20194;-60
2022/09/06 01:01:28;;;;;;;5.03;4.10;;;23.00;47.90;;;25.56;38.39;101778.03;5071749;28;20200;-60
2022/09/06 01:03:56;;;;;;;4.40;4.00;;;23.00;48.20;;;25.55;37.90;101763.72;5063216;28;20190;-59
2022/09/06 01:06:35;;;;;;;4.30;3.90;;;22.90;48.20;;;25.52;37.69;101756.16;5076873;28;20192;-60
2022/09/06 01:09:20;;;;;;;4.70;4.30;;;22.90;48.40;;;25.40;38.71;101760.78;5076929;28;20540;-59
2022/09/06 01:12:07;;;;;;;4.60;4.20;;;22.90;48.50;;;25.29;38.85;101756.28;5076325;28;20677;-59
2022/09/06 01:14:54;;;;;;;4.57;4.17;;;22.90;48.70;;;25.20;38.50;101747.00;5076454;28;20568;-60
2022/09/06 01:17:40;;;;;;;4.33;4.00;;;22.80;48.70;;;25.17;39.14;101752.06;5076624;28;20201;-60
2022/09/06 01:20:40;;;;;;;8.97;4.10;;;22.70;48.70;;;25.11;38.68;101751.16;5050208;28;20563;-61
2022/09/06 01:23:54;;;;;;;4.83;4.30;;;22.70;48.90;;;25.05;39.15;101749.47;5056424;28;20693;-60
2022/09/06 01:26:55;;;;;;;5.90;4.30;;;22.60;49.30;;;25.01;39.35;101759.09;5061092;28;20201;-61
2022/09/06 01:29:32;;;;;;;4.53;4.23;;;22.60;49.30;;;25.03;39.34;101748.88;5056257;28;20639;-61
2022/09/06 01:32:13;;;;;;;4.83;4.43;;;22.50;49.30;;;25.01;39.38;101742.13;5056079;28;20213;-61
2022/09/06 01:34:49;;;;;;;4.27;3.97;;;22.50;49.50;;;25.00;39.14;101740.47;5056137;28;20182;-61
2022/09/06 01:37:19;;;;;;;5.10;4.70;;;22.50;49.70;;;24.98;39.48;101732.66;5055969;28;20220;-61
2022/09/06 01:39:46;;;;;;;4.23;3.93;;;22.40;49.70;;;24.99;39.15;101744.22;5056207;28;20194;-60
2022/09/06 01:42:21;;;;;;;4.97;4.07;;;22.40;49.60;;;24.95;39.21;101754.69;5056065;28;20213;-60
2022/09/06 01:44:55;;;;;;;10.53;4.10;;;22.40;49.70;;;24.93;39.29;101750.59;5055676;28;20626;-61
2022/09/06 01:47:38;;;;;;;4.77;4.37;;;22.40;49.70;;;24.90;39.63;101751.91;5054917;28;20185;-61
2022/09/06 01:50:34;;;;;;;4.63;4.23;;;22.30;49.80;;;24.86;39.80;101753.47;5056119;28;20186;-61
2022/09/06 01:53:21;;;;;;;5.30;4.93;;;22.30;49.80;;;24.85;39.48;101749.13;5056198;28;20214;-61
2022/09/06 01:55:59;;;;;;;5.30;4.80;;;22.30;49.90;;;24.83;39.15;101741.28;5055789;28;20186;-60
2022/09/06 01:59:00;;;;;;;4.67;4.27;;;22.30;50.00;;;24.78;39.66;101745.78;5055655;28;20198;-60
2022/09/06 02:01:37;;;;;;;5.47;4.50;;;22.30;50.10;;;24.78;39.38;101743.91;5055202;28;20213;-61
2022/09/06 02:04:18;;;;;;;4.47;4.07;;;22.30;50.10;;;24.79;39.45;101742.03;5055715;28;20197;-60
2022/09/06 02:06:53;;;;;;;4.77;4.43;;;22.30;50.20;;;24.83;39.13;101735.09;5055860;28;20173;-60
2022/09/06 02:09:27;;;;;;;5.10;4.70;;;22.20;50.10;;;24.85;39.73;101738.34;5055644;28;20228;-60
2022/09/06 02:11:59;;;;;;;4.83;4.43;;;22.30;50.30;;;24.86;39.16;101729.22;5055405;28;20698;-59
2022/09/06 02:14:32;;;;;;;5.50;4.50;;;22.20;50.20;;;24.84;39.48;101731.34;5055657;28;20182;-61
2022/09/06 02:17:04;;;;;;;4.97;4.67;;;22.30;50.30;;;24.80;39.79;101722.09;5055216;28;20226;-60
2022/09/06 02:19:38;;;;;;;4.97;4.57;;;22.20;50.30;;;24.73;39.84;101722.22;5070835;28;20193;-61
2022/09/06 02:22:11;;;;;;;5.70;5.00;;;22.20;50.30;;;24.73;39.79;101724.09;5074884;28;20236;-61
2022/09/06 02:24:43;;;;;;;4.60;4.20;;;22.20;50.40;;;24.71;39.87;101721.66;5074887;28;20180;-60
2022/09/06 02:27:12;;;;;;;4.93;4.53;;;22.20;50.40;;;24.71;39.84;101728.91;5074886;28;20174;-61
2022/09/06 02:29:40;;;;;;;5.27;4.77;;;22.20;50.40;;;24.72;39.68;101717.88;5074821;28;20589;-61
2022/09/06 02:32:16;;;;;;;5.20;4.70;;;22.20;50.40;;;24.69;39.75;101728.34;5074711;28;20291;-59
2022/09/06 02:34:45;;;;;;;4.53;4.13;;;22.20;50.60;;;24.71;39.62;101723.53;5058660;28;20193;-60
2022/09/06 02:37:16;;;;;;;5.53;5.03;;;22.20;50.50;;;24.73;40.15;101724.09;5054799;28;20682;-60
2022/09/06 02:39:44;;;;;;;4.57;4.17;;;22.20;50.70;;;24.75;39.74;101716.59;5055134;28;20182;-59
2022/09/06 02:42:14;;;;;;;4.93;4.53;;;22.20;50.50;;;24.74;40.01;101714.97;5054854;28;20725;-59
2022/09/06 02:44:41;;;;;;;6.17;4.57;;;22.20;50.70;;;24.73;39.52;101721.41;5054644;28;20182;-60
2022/09/06 02:47:10;;;;;;;4.70;4.30;;;22.10;50.60;;;24.74;39.55;101723.88;5054969;28;20189;-59
2022/09/06 02:49:38;;;;;;;10.17;5.03;;;22.20;50.70;;;24.73;39.95;101711.44;5054736;28;20205;-60
2022/09/06 02:52:05;;;;;;;5.50;4.97;;;22.20;50.70;;;24.75;39.67;101717.41;5054146;28;20221;-60
2022/09/06 02:54:32;;;;;;;5.17;4.67;;;22.20;50.70;;;24.74;39.80;101720.34;5054377;28;20657;-59
2022/09/06 02:56:59;;;;;;;5.60;5.10;;;22.10;50.60;;;24.72;40.02;101717.09;5054406;28;20503;-59
2022/09/06 02:59:27;;;;;;;4.60;4.30;;;22.20;50.70;;;24.74;39.71;101709.59;5054227;28;20194;-62
2022/09/06 03:01:54;;;;;;;4.73;4.33;;;22.20;50.70;;;24.74;39.71;101704.19;5053711;28;20221;-61
2022/09/06 03:04:23;;;;;;;5.13;4.73;;;22.20;50.70;;;24.76;39.56;101702.94;5054228;28;20190;-61
2022/09/06 03:06:50;;;;;;;5.50;5.00;;;22.20;50.80;;;24.76;40.06;101702.06;5054201;28;20190;-61
2022/09/06 03:09:18;;;;;;;5.30;4.80;;;22.20;50.90;;;24.78;39.65;101705.38;5053688;28;20198;-61
2022/09/06 03:11:45;;;;;;;5.43;4.93;;;22.20;50.80;;;24.78;39.60;101711.56;5053745;28;20230;-61
2022/09/06 03:14:15;;;;;;;5.23;4.77;;;22.20;50.70;;;24.79;39.87;101701.63;5054377;28;20190;-61
2022/09/06 03:16:44;;;;;;;5.10;4.57;;;22.20;50.70;;;24.77;39.57;101703.75;5054044;28;20281;-61
2022/09/06 03:19:11;;;;;;;4.97;4.57;;;22.20;50.70;;;24.77;40.26;101692.97;5066372;28;20197;-61
2022/09/06 03:21:40;;;;;;;5.80;5.30;;;22.20;50.80;;;24.75;40.24;101695.84;5073725;28;20554;-61
2022/09/06 03:24:07;;;;;;;5.80;5.07;;;22.20;50.80;;;24.74;39.74;101693.44;5073900;28;20189;-61
2022/09/06 03:26:34;;;;;;;5.67;4.93;;;22.20;50.70;;;24.72;39.99;101687.47;5074092;28;20193;-61
2022/09/06 03:29:02;;;;;;;5.27;4.77;;;22.20;50.80;;;24.70;39.93;101681.47;5072610;28;20188;-60
2022/09/06 03:31:29;;;;;;;6.57;4.80;;;22.10;50.80;;;24.67;39.85;101674.75;5053525;28;20554;-60
2022/09/06 03:33:56;;;;;;;5.57;5.03;;;22.10;50.70;;;24.63;40.17;101672.75;5064269;28;20192;-61
2022/09/06 03:36:23;;;;;;;5.40;4.90;;;22.10;50.80;;;24.59;40.12;101668.91;5073805;28;20193;-61
2022/09/06 03:38:52;;;;;;;6.17;5.53;;;22.10;50.60;;;24.55;39.92;101667.78;5073933;28;20220;-61
2022/09/06 03:41:20;;;;;;;5.30;4.80;;;22.10;50.70;;;24.53;40.16;101669.91;5074122;28;20189;-57
2022/09/06 03:43:47;;;;;;;5.90;5.20;;;22.00;50.80;;;24.52;40.16;101668.28;5073310;28;20192;-60
2022/09/06 03:46:14;;;;;;;4.87;4.30;;;22.00;50.70;;;24.52;40.22;101668.28;5073552;28;20196;-61
2022/09/06 03:48:42;;;;;;;6.00;4.77;;;22.00;50.80;;;24.47;40.26;101677.06;5073440;28;20189;-61
2022/09/06 03:51:09;;;;;;;4.87;4.43;;;22.00;50.90;;;24.47;40.25;101678.94;5072892;28;20193;-61
2022/09/06 03:53:36;;;;;;;5.20;4.80;;;21.90;50.70;;;24.46;40.13;101669.25;5059530;28;20235;-61
2022/09/06 03:56:05;;;;;;;5.20;4.63;;;21.90;50.80;;;24.44;40.21;101676.75;5053776;28;20193;-59
2022/09/06 03:58:33;;;;;;;6.27;5.03;;;21.90;50.90;;;24.46;39.89;101674.63;5053215;28;20275;-61
2022/09/06 04:01:04;;;;;;;4.93;4.53;;;21.90;50.80;;;24.48;39.65;101681.41;5053042;28;20200;-61
2022/09/06 04:03:32;;;;;;;6.87;4.70;;;21.90;50.80;;;24.48;39.78;101683.28;5053283;28;20241;-61
2022/09/06 04:06:00;;;;;;;4.80;4.43;;;21.90;50.70;;;24.47;39.80;101687.03;5053370;28;20203;-60
2022/09/06 04:08:28;;;;;;;4.47;4.00;;;21.90;50.70;;;24.47;39.89;101685.16;5053044;28;20197;-61
2022/09/06 04:10:57;;;;;;;4.77;4.37;;;21.90;50.80;;;24.47;40.03;101682.47;5052622;28;20267;-59
2022/09/06 04:13:27;;;;;;;7.17;4.60;;;21.90;50.70;;;24.49;39.58;101674.94;5053328;28;20206;-59
2022/09/06 04:15:55;;;;;;;5.60;5.10;;;21.90;50.70;;;24.50;39.64;101683.84;5052986;28;20184;-59
2022/09/06 04:18:23;;;;;;;5.43;4.73;;;21.90;50.70;;;24.49;39.68;101683.03;5058863;28;20209;-60
2022/09/06 04:20:54;;;;;;;4.90;4.40;;;21.90;50.50;;;24.49;39.61;101684.91;5071925;28;20315;-59
2022/09/06 04:23:24;;;;;;;4.60;4.30;;;21.80;50.50;;;24.48;39.84;101672.50;5072930;28;20209;-61
2022/09/06 04:25:54;;;;;;;4.97;4.57;;;21.90;50.40;;;24.46;39.49;101674.63;5073033;28;20193;-60
2022/09/06 04:28:22;;;;;;;5.20;4.80;;;21.80;50.40;;;24.43;39.79;101675.13;5072670;28;20181;-60
2022/09/06 04:30:54;;;;;;;6.17;5.60;;;21.90;50.40;;;24.35;39.51;101670.94;5072052;28;20518;-59
2022/09/06 04:33:25;;;;;;;5.30;4.80;;;21.90;50.40;;;24.33;39.86;101666.84;5052480;28;20718;-61
2022/09/06 04:35:53;;;;;;;4.53;4.13;;;21.80;50.40;;;24.31;40.00;101677.06;5052553;28;20184;-60
2022/09/06 04:38:21;;;;;;;5.17;4.77;;;21.80;50.40;;;24.30;39.90;101680.78;5052514;28;20217;-59
2022/09/06 04:40:48;;;;;;;5.83;4.70;;;21.80;50.40;;;24.31;39.59;101679.75;5067896;28;20555;-59
2022/09/06 04:43:16;;;;;;;5.27;4.87;;;21.80;50.40;;;24.29;39.88;101673.78;5052332;28;20221;-60
2022/09/06 04:45:44;;;;;;;5.23;4.83;;;21.80;50.50;;;24.28;39.67;101672.16;5051600;28;20205;-61
2022/09/06 04:48:13;;;;;;;5.03;4.27;;;21.70;50.30;;;24.30;39.48;101670.03;5052292;28;20214;-61
2022/09/06 04:50:41;;;;;;;7.37;4.67;;;21.70;50.30;;;24.33;39.89;101683.00;5052303;28;20666;-61
2022/09/06 04:53:09;;;;;;;5.07;4.53;;;21.70;50.30;;;24.29;39.75;101671.09;5052540;28;20221;-59
2022/09/06 04:55:37;;;;;;;4.90;4.00;;;21.70;50.30;;;24.27;39.57;101665.94;5052525;28;20213;-61
2022/09/06 04:58:05;;;;;;;4.93;4.13;;;21.70;50.30;;;24.26;39.56;101668.88;5052519;28;20213;-60
2022/09/06 05:00:34;;;;;;;6.17;4.73;;;21.60;50.20;;;24.21;40.05;101662.38;5052156;28;20210;-61
2022/09/06 05:03:02;;;;;;;7.57;4.80;;;21.70;50.30;;;24.20;39.61;101671.47;5052932;28;20222;-60
2022/09/06 05:05:30;;;;;;;7.03;4.80;;;21.70;50.30;;;24.16;39.66;101659.56;5052467;28;20202;-60
2022/09/06 05:07:58;;;;;;;5.33;4.60;;;21.60;50.20;;;24.15;39.79;101663.31;5052105;28;20197;-59
2022/09/06 05:10:25;;;;;;;4.93;4.53;;;21.60;50.20;;;24.16;39.73;101664.13;5051855;28;20193;-59
2022/09/06 05:12:53;;;;;;;8.33;4.67;;;21.60;50.20;;;24.14;39.48;101672.47;5052680;28;20210;-60
2022/09/06 05:15:22;;;;;;;5.87;4.20;;;21.60;50.20;;;24.07;39.73;101669.09;5052958;28;20210;-60
2022/09/06 05:17:49;;;;;;;5.27;4.87;;;21.60;50.20;;;24.04;39.47;101666.03;5053774;28;20221;-60
2022/09/06 05:20:17;;;;;;;7.10;5.50;;;21.50;50.10;;;24.03;39.64;101675.97;5071729;28;20193;-62
2022/09/06 05:22:53;;;;;;;5.53;4.90;;;21.50;50.20;;;24.00;39.81;101668.41;5071879;28;20209;-60
2022/09/06 05:25:20;;;;;;;5.37;4.87;;;21.50;50.30;;;24.02;39.89;101668.97;5073430;28;20493;-59
2022/09/06 05:27:47;;;;;;;6.00;4.43;;;21.50;50.20;;;24.00;39.78;101654.94;5073162;28;20665;-61
2022/09/06 05:30:16;;;;;;;5.23;4.33;;;21.50;50.30;;;24.01;39.85;101656.56;5072777;28;20193;-62
2022/09/06 05:32:44;;;;;;;4.97;4.57;;;21.50;50.40;;;24.02;39.74;101662.75;5074277;28;20288;-59
2022/09/06 05:35:11;;;;;;;6.20;5.60;;;21.50;50.40;;;24.03;39.76;101665.19;5057138;28;20315;-61
2022/09/06 05:37:39;;;;;;;6.13;5.60;;;21.50;50.40;;;24.00;39.79;101667.56;5056716;28;20194;-60
2022/09/06 05:40:09;;;;;;;7.97;4.60;;;21.50;50.20;;;24.02;39.74;101673.53;5055816;28;20213;-59
2022/09/06 05:42:37;;;;;;;6.77;6.03;;;21.50;50.20;;;24.03;39.80;101675.97;5055166;28;20271;-58
2022/09/06 05:45:05;;;;;;;8.07;4.83;;;21.50;50.20;;;24.04;39.76;101683.00;5054989;28;20220;-60
2022/09/06 05:47:34;;;;;;;5.97;4.77;;;21.50;50.30;;;24.05;39.76;101690.03;5055344;28;20204;-60
2022/09/06 05:50:02;;;;;;;8.47;7.67;;;21.50;50.20;;;24.11;39.70;101705.22;5055158;28;20651;-58
2022/09/06 05:52:29;;;;;;;6.83;4.57;;;21.50;50.30;;;24.14;39.67;101725.44;5055647;28;20258;-62
2022/09/06 05:54:57;;;;;;;4.97;4.57;;;21.50;50.10;;;24.12;39.38;101744.53;5055221;28;20194;-60
2022/09/06 05:57:26;;;;;;;5.93;4.50;;;21.50;50.10;;;24.07;39.36;101743.63;5055120;28;20596;-60
2022/09/06 05:59:53;;;;;;;6.10;5.03;;;21.50;50.10;;;24.01;39.52;101739.97;5055106;28;20210;-61
2022/09/06 06:02:21;;;;;;;9.43;4.70;;;21.50;50.20;;;23.98;39.69;101729.69;5054996;28;20331;-59
2022/09/06 06:04:50;;;;;;;5.83;4.33;;;21.50;50.10;;;23.99;39.64;101723.25;5055025;28;20197;-60
2022/09/06 06:07:18;;;;;;;7.30;4.90;;;21.50;50.20;;;24.03;39.61;101713.63;5054820;28;20196;-61
2022/09/06 06:09:45;;;;;;;6.33;4.90;;;21.50;50.10;;;24.04;39.48;101693.75;5055076;28;20197;-61
2022/09/06 06:12:12;;;;;;;10.37;5.90;;;21.50;50.20;;;24.06;39.54;101691.66;5054571;28;20209;-58
2022/09/06 06:14:41;;;;;;;5.03;4.23;;;21.50;50.20;;;24.08;39.47;101692.25;5054267;28;20190;-61
2022/09/06 06:17:08;;;;;;;9.13;4.93;;;21.50;50.10;;;24.08;39.37;101686.84;5055001;28;20277;-62
2022/09/06 06:19:36;;;;;;;7.03;5.40;;;21.50;50.00;;;24.09;39.32;101680.44;5054811;28;20217;-61
2022/09/06 06:22:03;;;;;;;9.97;5.03;;;21.50;50.00;;;24.10;39.79;101671.28;5053635;28;20564;-59
2022/09/06 06:24:31;;;;;;;7.57;5.93;;;21.50;50.40;;;24.09;39.92;101664.28;5053948;28;20197;-61
2022/09/06 06:26:58;;;;;;;7.77;5.80;;;21.50;50.50;;;24.07;39.92;101661.03;5054855;28;20557;-60
2022/09/06 06:29:25;;;;;;;8.17;5.00;;;21.50;50.50;;;24.07;39.71;101662.91;5055448;28;20186;-60
2022/09/06 06:31:54;;;;;;;5.50;4.30;;;21.50;50.40;;;24.08;39.93;101667.22;5054277;28;20213;-60
2022/09/06 06:34:22;;;;;;;5.57;4.60;;;21.50;50.50;;;24.05;39.81;101654.22;5067802;28;20693;-62
2022/09/06 06:36:49;;;;;;;5.20;4.57;;;21.50;50.50;;;24.07;39.90;101647.56;5074517;28;20198;-60
2022/09/06 06:39:16;;;;;;;7.37;4.33;;;21.50;50.30;;;24.07;39.72;101650.25;5074260;28;20217;-59
2022/09/06 06:41:44;;;;;;;5.67;4.93;;;21.50;50.30;;;24.08;40.04;101651.88;5065168;28;20224;-60
2022/09/06 06:44:11;;;;;;;8.87;6.70;;;21.50;50.10;;;24.10;39.45;101660.53;5052698;28;20504;-59
2022/09/06 06:46:40;;;;;;;6.90;6.20;;;21.50;50.10;;;24.13;39.23;101657.34;5054568;28;20192;-61
2022/09/06 06:49:09;;;;;;;6.27;4.60;;;21.50;50.10;;;24.16;39.08;101670.34;5053964;28;20198;-60
2022/09/06 06:51:36;;;;;;;8.40;5.37;;;21.50;49.90;;;24.14;39.21;101688.59;5053963;28;20201;-60
2022/09/06 06:54:04;;;;;;;7.03;4.60;;;21.60;49.90;;;24.17;38.94;101692.69;5053885;28;20194;-61
2022/09/06 06:56:35;;;;;;;5.17;4.00;;;21.50;50.00;;;24.15;39.00;101698.28;5069480;28;20208;-61
2022/09/06 06:59:05;;;;;;;6.23;4.87;;;21.50;49.70;;;24.15;39.41;101703.69;5054118;28;20210;-62
2022/09/06 07:01:35;;;;;;;5.57;4.43;;;21.50;50.00;;;24.17;39.30;101698.06;5053061;28;20226;-61
2022/09/06 07:04:03;;;;;;;10.87;5.17;;;21.50;49.80;;;24.23;38.96;101702.47;5053833;28;20190;-60
2022/09/06 07:06:47;;;;;;;5.07;4.10;;;21.50;50.00;;;24.29;39.12;101712.28;5053750;28;20209;-59
2022/09/06 07:09:35;;;;;;;5.10;4.60;;;21.50;50.00;;;24.38;38.66;101720.78;5053600;28;20554;-60
2022/09/06 07:12:23;;;;;;;6.73;4.27;;;21.60;49.70;;;24.45;38.52;101726.84;5053530;28;20214;-61
2022/09/06 07:14:51;;;;;;;6.20;5.03;;;21.60;49.50;;;24.51;38.40;101732.06;5053925;28;20194;-61
2022/09/06 07:17:18;;;;;;;7.73;5.30;;;21.70;49.50;;;24.59;38.34;101728.16;5054163;28;20193;-61
2022/09/06 07:19:46;;;;;;;4.50;4.10;;;21.70;49.50;;;24.65;38.27;101735.28;5071171;28;20201;-62
2022/09/06 07:22:35;;;;;;;8.20;4.80;;;21.80;49.30;;;24.71;38.08;101726.22;5073713;28;20217;-59
2022/09/06 07:25:04;;;;;;;8.50;4.57;;;21.80;49.30;;;24.77;38.06;101719.91;5072681;28;20208;-62
2022/09/06 07:27:31;;;;;;;7.27;4.37;;;21.90;49.20;;;24.82;37.70;101718.09;5073530;28;20203;-60
2022/09/06 07:30:16;;;;;;;7.00;4.13;;;21.90;48.90;;;24.86;37.69;101721.13;5073677;28;20192;-61
2022/09/06 07:32:43;;;;;;;8.37;5.13;;;22.00;48.80;;;24.91;37.67;101718.53;5073252;28;20588;-61
2022/09/06 07:35:12;;;;;;;5.73;4.23;;;22.00;48.90;;;24.95;37.58;101716.97;5053581;28;20194;-59
2022/09/06 07:37:41;;;;;;;8.30;4.30;;;22.10;48.70;;;25.00;37.27;101719.75;5060630;28;20193;-60
2022/09/06 07:40:10;;;;;;;6.43;5.00;;;22.10;49.30;;;25.00;37.09;101733.22;5073124;28;20204;-60
2022/09/06 07:42:37;;;;;;;7.43;4.27;;;22.10;48.30;;;25.01;37.25;101737.53;5072781;28;20221;-60
2022/09/06 07:45:08;;;;;;;13.27;5.43;;;22.10;48.40;;;25.03;37.34;101734.59;5087803;28;20189;-60
2022/09/06 07:47:35;;;;;;;8.50;5.73;;;22.20;48.30;;;25.03;37.31;101734.59;5073963;28;20189;-59
2022/09/06 07:50:23;;;;;;;6.27;4.87;;;22.20;48.40;;;24.95;37.39;101727.75;5072439;28;20190;-57
2022/09/06 07:53:12;;;;;;;7.10;5.10;;;22.20;48.20;;;24.89;37.78;101734.09;5057447;28;20221;-60
2022/09/06 07:55:45;;;;;;;18.43;6.30;;;22.20;48.30;;;24.85;37.48;101722.19;5052594;28;20174;-60
2022/09/06 07:58:13;;;;;;;4.43;3.97;;;22.20;48.40;;;24.73;38.22;101732.19;5053559;28;20198;-60
2022/09/06 08:00:40;;;;;;;6.47;5.10;;;22.10;48.30;;;24.72;37.89;101727.88;5053113;28;20200;-60
2022/09/06 08:03:09;;;;;;;9.70;7.70;;;22.10;48.40;;;24.77;37.89;101726.09;5053127;28;20629;-60
2022/09/06 08:05:36;;;;;;;9.53;5.50;;;22.10;48.60;;;24.86;38.08;101718.44;5053399;28;20209;-61
2022/09/06 08:08:25;;;;;;;7.83;4.80;;;22.10;48.70;;;24.95;37.88;101722.34;5052514;28;20189;-61
2022/09/06 08:11:12;;;;;;;5.60;4.70;;;22.20;48.70;;;24.94;37.79;101742.25;5052235;28;20267;-61
2022/09/06 08:13:41;;;;;;;6.27;5.07;;;22.20;48.50;;;24.98;37.43;101739.91;5052235;28;20229;-60
2022/09/06 08:16:10;;;;;;;6.47;5.80;;;22.20;48.50;;;24.98;37.68;101742.59;5052473;28;20558;-59
2022/09/06 08:18:38;;;;;;;6.20;4.30;;;22.20;48.60;;;24.97;38.12;101736.38;5052727;28;20217;-60
2022/09/06 08:21:07;;;;;;;7.50;5.10;;;22.30;48.50;;;25.00;37.87;101730.53;5052313;28;20592;-59
2022/09/06 08:23:44;;;;;;;4.73;4.33;;;22.30;48.60;;;24.99;37.80;101728.06;5053355;28;20256;-60
2022/09/06 08:26:12;;;;;;;8.03;4.70;;;22.30;48.60;;;25.00;37.53;101727.81;5053394;28;20173;-59
2022/09/06 08:28:40;;;;;;;6.07;4.80;;;22.30;48.60;;;25.02;37.92;101731.09;5053390;28;20272;-60
2022/09/06 08:31:10;;;;;;;6.13;5.00;;;22.40;48.70;;;25.07;37.47;101731.16;5053539;28;20199;-61
2022/09/06 08:33:39;;;;;;;5.97;4.70;;;22.30;48.50;;;25.16;37.95;101735.06;5052323;28;20220;-61
2022/09/06 08:36:08;;;;;;;5.83;4.63;;;22.40;48.70;;;25.20;37.85;101744.28;5052332;28;20193;-59
2022/09/06 08:38:36;;;;;;;4.93;4.17;;;22.40;48.70;;;25.18;37.92;101738.34;5052934;28;20547;-61
2022/09/06 08:41:20;;;;;;;6.60;4.87;;;22.40;48.60;;;25.14;38.08;101737.22;5052532;28;20190;-60
2022/09/06 08:43:55;;;;;;;5.73;5.23;;;22.40;48.60;;;25.16;37.85;101729.69;5052203;28;20186;-60
2022/09/06 08:46:53;;;;;;;11.50;6.07;;;22.40;48.70;;;25.16;37.99;101721.59;5052279;28;20196;-60
2022/09/06 08:49:20;;;;;;;9.87;5.20;;;22.50;48.60;;;25.18;37.96;101722.16;5052159;28;20198;-59
2022/09/06 08:52:09;;;;;;;12.60;6.03;;;22.50;48.60;;;25.18;37.74;101716.78;5051740;28;20205;-60
2022/09/06 08:54:44;;;;;;;19.53;6.07;;;22.50;48.60;;;25.19;37.86;101718.41;5067844;28;20186;-61
2022/09/06 08:57:31;;;;;;;12.77;6.17;;;22.50;48.70;;;25.16;37.79;101708.13;5052639;28;20269;-60
2022/09/06 09:00:08;;;;;;;9.63;5.17;;;22.50;48.80;;;25.17;38.02;101709.78;5052153;28;20222;-60
2022/09/06 09:02:44;;;;;;;23.33;6.80;;;22.50;48.90;;;25.23;38.21;101705.25;5066031;28;20205;-60
2022/09/06 09:05:26;;;;;;;18.57;9.70;;;22.50;48.90;;;25.29;37.68;101691.59;5052573;28;20309;-59
2022/09/06 09:08:12;;;;;;;7.70;6.43;;;22.60;49.10;;;25.35;38.14;101689.78;5054755;28;20186;-59
2022/09/06 09:10:44;;;;;;;14.30;4.70;;;22.50;49.00;;;25.37;38.05;101688.47;5057035;28;20190;-59
2022/09/06 09:13:24;;;;;;;9.00;5.30;;;22.60;48.90;;;25.41;37.95;101678.03;5056062;28;20224;-59
2022/09/06 09:15:52;;;;;;;5.10;4.60;;;22.60;49.00;;;25.43;38.24;101684.78;5056297;28;20239;-61
2022/09/06 09:18:26;;;;;;;4.63;4.23;;;22.60;48.90;;;25.40;37.43;101688.00;5060711;28;20212;-60
2022/09/06 09:20:54;;;;;;;6.07;4.33;;;22.60;48.80;;;25.41;38.13;101684.22;5075491;28;20262;-61
2022/09/06 09:23:22;;;;;;;6.50;5.17;;;22.60;48.80;;;25.40;37.88;101693.38;5075756;28;20209;-60
2022/09/06 09:25:54;;;;;;;5.37;4.00;;;22.60;48.60;;;25.40;37.58;101701.47;5075803;28;20228;-59
2022/09/06 09:28:23;;;;;;;8.53;5.10;;;22.60;48.40;;;25.39;37.40;101699.81;5075791;28;20197;-60
2022/09/06 09:30:54;;;;;;;4.67;3.90;;;22.60;48.60;;;25.40;37.61;101696.06;5064350;28;20244;-61
2022/09/06 09:33:29;;;;;;;6.70;3.97;;;22.60;48.60;;;25.39;37.71;101696.31;5076509;28;20215;-60
2022/09/06 09:36:00;;;;;;;7.43;4.13;;;22.60;48.50;;;25.38;37.68;101695.50;5075834;28;20224;-60
2022/09/06 09:38:31;;;;;;;4.80;3.70;;;22.60;48.60;;;25.38;37.29;101695.50;5075907;28;20181;-60
2022/09/06 09:41:04;;;;;;;12.10;10.67;;;22.60;48.70;;;25.38;37.98;101695.50;5076189;28;20300;-61
2022/09/06 09:43:36;;;;;;;6.37;5.30;;;22.60;48.70;;;25.34;38.36;101688.97;5075484;28;20569;-61
2022/09/06 09:46:26;;;;;;;8.37;6.07;;;22.60;49.30;;;25.27;38.80;101682.16;5064091;28;20265;-60
2022/09/06 09:49:04;;;;;;;9.43;5.27;;;22.50;49.90;;;25.22;39.52;101668.59;5055452;28;20185;-60
2022/09/06 09:51:35;;;;;;;7.63;5.93;;;22.50;50.40;;;25.20;39.09;101674.22;5055040;28;20194;-58
2022/09/06 09:54:05;;;;;;;11.67;6.83;;;22.60;50.90;;;25.20;39.40;101670.72;5056349;28;20669;-60
2022/09/06 09:56:42;;;;;;;5.20;4.53;;;22.50;50.90;;;25.20;39.74;101671.50;5055232;28;20541;-61
2022/09/06 09:59:28;;;;;;;4.83;4.13;;;22.50;51.10;;;25.20;39.57;101671.50;5055842;28;20666;-60
2022/09/06 10:02:00;;;;;;;10.47;5.67;;;22.50;51.40;;;25.22;40.03;101673.97;5055895;28;20312;-60
2022/09/06 10:04:34;;;;;;;5.53;4.07;;;22.50;51.40;;;25.16;40.21;101675.78;5055577;28;20651;-60
2022/09/06 10:07:15;;;;;;;8.40;4.33;;;22.50;51.40;;;25.10;39.56;101671.41;5054655;28;20202;-59
2022/09/06 10:09:46;;;;;;;28.13;7.37;;;22.50;51.50;;;25.08;40.02;101673.50;5055155;28;20248;-59
2022/09/06 10:12:18;;;;;;;14.90;5.73;;;22.40;51.30;;;25.12;39.73;101669.25;5070128;28;20547;-60
2022/09/06 10:14:48;;;;;;;14.17;8.47;;;22.40;51.30;;;25.25;39.45;101668.06;5055573;28;20208;-60
2022/09/06 10:17:29;;;;;;;10.33;5.23;;;22.40;51.30;;;25.36;39.03;101664.47;5055168;28;20200;-60
2022/09/06 10:20:02;;;;;;;16.03;6.57;;;22.50;51.30;;;25.41;39.53;101654.53;5074055;28;20219;-57
2022/09/06 10:22:32;;;;;;;16.03;5.97;;;22.50;51.00;;;25.46;39.41;101670.81;5075372;28;20231;-60
2022/09/06 10:25:38;;;;;;;16.60;5.67;;;22.60;51.10;;;25.42;38.98;101666.97;5091937;28;20209;-58
2022/09/06 10:28:32;;;;;;;18.03;6.37;;;22.60;51.00;;;25.44;38.84;101672.97;5055736;28;20228;-60
2022/09/06 10:31:30;;;;;;;15.73;5.23;;;22.60;50.90;;;25.45;39.14;101671.09;5055065;28;20194;-61
2022/09/06 10:34:39;;;;;;;18.23;5.60;;;22.60;51.00;;;25.43;39.12;101675.88;5055398;28;20563;-61